Marcos Juarez, Argentina
Current Conditions -  °F | °C
As of 10:00 PM on Friday 28 Nov 2014 (Local Time) from SAAR Reporting Station
Clear Clear  
Wind Chill: 79°   Ceiling: Unl
Heat Index: 80°   Visibility: 6mi
Dew Point: 61°   Wind: 13mph
Humidity: 54%   Direction: 50°NE
Pressure: 29.77"   Gusts: NA
Location:  32.71°S, 62.11°W
Report Text: SAAR 290100Z 05011KT CAVOK 26/16 Q1008
Loading
Personal Weather Stations






























Interactive Weather Map New forecast layout! Learn more

10-Day Weather Forecast

Advertisements
Track Severe Weather on mobile